Time;durP1;ratioP1;P1;durP2;ratioP2;P2;SDS_P1;SDS_P2;PMS_P1;PMS_P2;Temp;Humidity;BMP_temperature;BMP_pressure;BME280_temperature;BME280_humidity;BME280_pressure;Samples;Min_cycle;Max_cycle;Signal;HPM_P1;HPM_P2
2021/05/28 00:00:33;;;;;;;1.20;0.43;;;;;;;19.64;46.96;101433.50;5056555;28;20056;-62
2021/05/28 00:03:00;;;;;;;0.50;0.38;;;;;;;19.63;47.15;101430.94;5055972;28;20063;-63
2021/05/28 00:05:27;;;;;;;0.75;0.68;;;;;;;19.62;47.06;101435.44;5056518;28;20107;-62
2021/05/28 00:07:55;;;;;;;0.82;0.60;;;;;;;19.60;47.31;101440.03;5054985;28;20056;-62
2021/05/28 00:10:22;;;;;;;1.55;0.43;;;;;;;19.59;47.13;101441.00;5056673;28;20446;-62
2021/05/28 00:12:49;;;;;;;1.73;0.60;;;;;;;19.57;47.09;101440.31;5056499;28;20052;-63
2021/05/28 00:15:16;;;;;;;1.40;0.40;;;;;;;19.55;47.06;101439.59;5056001;28;20487;-66
2021/05/28 00:17:42;;;;;;;4.20;0.70;;;;;;;19.54;47.53;101438.75;5055840;28;20048;-62
2021/05/28 00:20:12;;;;;;;0.90;0.60;;;;;;;19.53;47.79;101446.88;5055990;28;20045;-63
2021/05/28 00:22:39;;;;;;;1.80;0.70;;;;;;;19.51;47.81;101448.81;5044618;28;20080;-62
2021/05/28 00:25:08;;;;;;;1.13;0.60;;;;;;;19.49;47.93;101446.28;5035632;28;20462;-63
2021/05/28 00:27:35;;;;;;;4.32;0.70;;;;;;;19.48;47.68;101449.91;5035796;28;20049;-78
2021/05/28 00:30:04;;;;;;;1.95;0.65;;;;;;;19.48;47.86;101449.09;5035653;28;20057;-62
2021/05/28 00:32:31;;;;;;;0.90;0.63;;;;;;;19.48;48.23;101454.41;5035903;28;20533;-78
2021/05/28 00:34:58;;;;;;;0.95;0.60;;;;;;;19.46;48.24;101454.50;5035582;28;20049;-62
2021/05/28 00:37:25;;;;;;;2.40;0.80;;;;;;;19.45;48.18;101450.16;5036188;28;20087;-62
2021/05/28 00:39:52;;;;;;;2.67;0.90;;;;;;;19.45;48.27;101462.63;5035525;28;20458;-63
2021/05/28 00:42:18;;;;;;;1.25;0.90;;;;;;;19.46;48.73;101461.66;5035548;28;20050;-62
2021/05/28 00:44:45;;;;;;;1.42;1.00;;;;;;;19.42;48.65;101464.56;5035301;28;20049;-62
2021/05/28 00:47:12;;;;;;;2.33;0.88;;;;;;;19.40;49.18;101463.84;5035416;28;20049;-62
2021/05/28 00:49:38;;;;;;;1.13;0.80;;;;;;;19.40;49.06;101463.84;5035567;28;20063;-62
2021/05/28 00:52:05;;;;;;;1.60;0.85;;;;;;;19.38;49.13;101468.44;5035297;28;20049;-62
2021/05/28 00:54:32;;;;;;;2.15;1.05;;;;;;;19.38;49.54;101467.63;5035192;28;20064;-62
2021/05/28 00:56:59;;;;;;;1.98;1.00;;;;;;;19.36;49.59;101473.06;5035271;28;20053;-62
2021/05/28 00:59:26;;;;;;;1.70;0.90;;;;;;;19.35;49.93;101478.50;5035063;28;20061;-62
2021/05/28 01:01:54;;;;;;;1.80;1.10;;;;;;;19.34;50.11;101482.16;5035471;28;20045;-65
2021/05/28 01:04:21;;;;;;;3.03;1.00;;;;;;;19.33;49.96;101491.09;5033427;28;20045;-68
2021/05/28 01:06:48;;;;;;;3.13;1.15;;;;;;;19.31;50.32;101480.59;5035172;28;20111;-63
2021/05/28 01:09:15;;;;;;;1.60;1.02;;;;;;;19.30;50.48;101492.22;5035011;28;20056;-67
2021/05/28 01:11:42;;;;;;;3.55;2.15;;;;;;;19.30;50.72;101494.00;5034997;28;20052;-62
2021/05/28 01:14:09;;;;;;;1.83;1.30;;;;;;;19.28;50.52;101494.13;5035008;28;20099;-62
2021/05/28 01:16:36;;;;;;;2.67;1.23;;;;;;;19.27;51.01;101495.09;5035202;28;20056;-62
2021/05/28 01:19:04;;;;;;;3.05;1.50;;;;;;;19.26;51.48;101498.72;5034587;28;20411;-62
2021/05/28 01:21:31;;;;;;;3.78;2.15;;;;;;;19.23;51.63;101509.63;5035072;28;20419;-62
2021/05/28 01:23:58;;;;;;;4.88;1.90;;;;;;;19.21;51.86;101512.44;5034830;28;20041;-62
2021/05/28 01:26:25;;;;;;;3.38;1.83;;;;;;;19.19;51.72;101514.34;5034824;28;20045;-62
2021/05/28 01:28:52;;;;;;;3.58;2.03;;;;;;;19.16;52.08;101519.06;5034857;28;20534;-62
2021/05/28 01:31:19;;;;;;;4.75;1.73;;;;;;;19.14;52.41;101519.19;5034350;28;20054;-64
2021/05/28 01:33:47;;;;;;;2.67;1.70;;;;;;;19.13;52.28;101527.31;5034815;28;20051;-62
2021/05/28 01:36:14;;;;;;;3.85;1.90;;;;;;;19.10;52.93;101528.41;5034650;28;20446;-62
2021/05/28 01:38:40;;;;;;;4.63;2.13;;;;;;;19.06;52.89;101522.47;5034033;28;20504;-62
2021/05/28 01:41:07;;;;;;;4.53;2.10;;;;;;;19.05;53.22;101526.09;5034166;28;20061;-79
2021/05/28 01:43:34;;;;;;;2.90;2.28;;;;;;;19.02;53.36;101526.38;5034222;28;20049;-62
2021/05/28 01:46:01;;;;;;;4.05;2.40;;;;;;;18.98;53.31;101529.38;5033984;28;20107;-62
2021/05/28 01:48:27;;;;;;;3.80;2.63;;;;;;;18.98;53.36;101526.72;5034162;28;20060;-62
2021/05/28 01:50:54;;;;;;;3.03;2.13;;;;;;;18.98;53.64;101537.38;5034492;28;20072;-62
2021/05/28 01:53:23;;;;;;;4.28;2.28;;;;;;;18.99;53.55;101533.75;5034204;28;20052;-62
2021/05/28 01:55:52;;;;;;;5.38;2.90;;;;;;;18.98;53.58;101532.06;5033936;28;20046;-62
2021/05/28 01:58:21;;;;;;;5.40;2.63;;;;;;;18.97;53.57;101539.19;5033795;28;20443;-62
2021/05/28 02:00:48;;;;;;;3.65;2.45;;;;;;;18.97;53.58;101541.84;5033800;28;20049;-61
2021/05/28 02:03:15;;;;;;;4.97;2.40;;;;;;;18.94;54.07;101552.72;5033711;28;20046;-62
2021/05/28 02:05:43;;;;;;;3.28;2.28;;;;;;;18.93;54.51;101562.53;5034147;28;20045;-68
2021/05/28 02:08:10;;;;;;;4.30;2.67;;;;;;;18.93;54.73;101566.97;5033987;28;20103;-62
2021/05/28 02:10:37;;;;;;;6.70;2.63;;;;;;;18.90;54.47;101565.41;5034130;28;20048;-62
2021/05/28 02:13:04;;;;;;;5.28;2.58;;;;;;;18.87;55.15;101570.94;5033907;28;20054;-62
2021/05/28 02:15:31;;;;;;;4.45;2.80;;;;;;;18.85;55.23;101566.72;5034659;28;20118;-62
2021/05/28 02:17:58;;;;;;;3.60;2.60;;;;;;;18.83;55.51;101563.31;5033975;28;20487;-62
2021/05/28 02:20:25;;;;;;;4.07;2.30;;;;;;;18.83;55.52;101564.19;5033393;28;20072;-62
2021/05/28 02:22:52;;;;;;;4.43;2.38;;;;;;;18.84;55.40;101563.22;5033635;28;20052;-63
2021/05/28 02:25:19;;;;;;;4.80;2.80;;;;;;;18.84;55.37;101560.56;5033319;28;20064;-62
2021/05/28 02:27:46;;;;;;;4.30;2.20;;;;;;;18.85;55.05;101556.09;5033496;28;20107;-62
2021/05/28 02:30:13;;;;;;;3.20;2.33;;;;;;;18.86;55.62;101555.13;5033553;28;20557;-70
2021/05/28 02:32:40;;;;;;;3.58;1.98;;;;;;;18.87;55.08;101555.00;5033447;28;20046;-62
2021/05/28 02:35:10;;;;;;;2.38;1.80;;;;;;;18.89;54.85;101557.53;5033621;28;20046;-62
2021/05/28 02:37:37;;;;;;;3.97;1.60;;;;;;;18.90;54.58;101556.59;5033397;28;20049;-62
2021/05/28 02:40:06;;;;;;;4.45;1.63;;;;;;;18.92;54.38;101562.66;5033304;28;20103;-62
2021/05/28 02:42:33;;;;;;;2.72;1.77;;;;;;;18.93;54.43;101573.16;5033567;28;20049;-62
2021/05/28 02:45:00;;;;;;;3.08;1.75;;;;;;;18.94;54.16;101566.03;5033310;28;20506;-62
2021/05/28 02:47:27;;;;;;;3.85;1.92;;;;;;;18.95;53.90;101565.06;5033497;28;20041;-78
2021/05/28 02:49:54;;;;;;;2.15;1.67;;;;;;;18.96;53.88;101564.09;5032992;28;20042;-62
2021/05/28 02:52:20;;;;;;;2.17;1.80;;;;;;;18.97;53.82;101571.13;5033413;28;20052;-62
2021/05/28 02:54:48;;;;;;;2.50;1.40;;;;;;;18.97;53.50;101557.81;5033075;28;20496;-62
2021/05/28 02:57:15;;;;;;;8.52;2.25;;;;;;;18.97;53.72;101568.44;5033058;28;20495;-62
2021/05/28 02:59:42;;;;;;;4.28;1.60;;;;;;;18.97;53.83;101562.28;5032808;28;20049;-62
2021/05/28 03:02:08;;;;;;;3.70;1.70;;;;;;;18.98;53.59;101566.63;5033559;28;20407;-62
2021/05/28 03:04:35;;;;;;;2.05;1.52;;;;;;;18.97;53.55;101559.59;5048604;28;20045;-62
2021/05/28 03:07:02;;;;;;;2.45;1.80;;;;;;;18.96;53.07;101558.78;5049247;28;20049;-76
2021/05/28 03:09:29;;;;;;;3.30;1.33;;;;;;;18.97;53.20;101562.28;5042083;28;20046;-62
2021/05/28 03:11:56;;;;;;;3.28;1.50;;;;;;;18.95;52.84;101553.59;5029112;28;20462;-62
2021/05/28 03:14:23;;;;;;;2.75;1.60;;;;;;;18.95;52.93;101561.56;5029285;28;20107;-62
2021/05/28 03:16:50;;;;;;;1.95;1.60;;;;;;;18.93;52.62;101554.53;5029101;28;20052;-62
2021/05/28 03:20:04;;;;;;;2.55;1.85;;;;;;;18.92;52.45;101558.16;5028987;28;20104;-62
2021/05/28 03:24:48;;;;;;;2.17;1.73;;;;;;;18.87;52.38;101557.66;5029264;28;20077;-62
2021/05/28 03:27:15;;;;;;;4.55;1.60;;;;;;;18.85;52.52;101559.56;5028831;28;20662;-62
2021/05/28 03:29:42;;;;;;;2.65;1.65;;;;;;;18.84;52.59;101557.03;5028972;28;20046;-62
2021/05/28 03:32:08;;;;;;;3.17;1.58;;;;;;;18.83;52.06;101560.66;5029005;28;20046;-62
2021/05/28 03:34:35;;;;;;;2.33;1.42;;;;;;;18.81;52.31;101558.13;5029321;28;20111;-62
2021/05/28 03:37:03;;;;;;;3.78;1.38;;;;;;;18.80;52.29;101561.75;5029158;28;20057;-62
2021/05/28 03:39:30;;;;;;;2.63;1.70;;;;;;;18.80;52.44;101561.75;5029048;28;20606;-62
2021/05/28 03:41:57;;;;;;;2.75;1.80;;;;;;;18.79;52.27;101561.88;5028907;28;20096;-62
2021/05/28 03:44:23;;;;;;;2.28;1.42;;;;;;;18.76;52.17;101569.13;5029115;28;20127;-62
2021/05/28 03:46:50;;;;;;;1.67;1.42;;;;;;;18.77;52.18;101570.00;5029417;28;20049;-78
2021/05/28 03:49:17;;;;;;;4.10;1.63;;;;;;;18.75;51.92;101559.47;5029474;28;20049;-62
2021/05/28 03:51:43;;;;;;;5.88;1.80;;;;;;;18.75;52.16;101569.25;5029038;28;20057;-73
2021/05/28 03:54:10;;;;;;;4.30;2.03;;;;;;;18.75;52.32;101561.28;5029939;28;20057;-74
2021/05/28 03:56:37;;;;;;;4.00;2.42;;;;;;;18.74;52.52;101563.09;5029581;28;20045;-77
2021/05/28 03:59:03;;;;;;;2.80;1.83;;;;;;;18.73;52.84;101566.72;5029504;28;20405;-62
2021/05/28 04:01:30;;;;;;;2.33;1.92;;;;;;;18.73;52.68;101568.53;5029522;28;20072;-62
2021/05/28 04:03:57;;;;;;;2.50;1.77;;;;;;;18.73;52.70;101571.19;5048220;28;20041;-69
2021/05/28 04:06:24;;;;;;;5.05;2.28;;;;;;;18.72;52.95;101580.13;5048999;28;20041;-62
2021/05/28 04:08:50;;;;;;;6.45;2.17;;;;;;;18.70;53.46;101580.25;5049532;28;20049;-73
2021/05/28 04:11:18;;;;;;;5.72;2.30;;;;;;;18.70;53.90;101588.25;5050412;28;20781;-79
2021/05/28 04:13:44;;;;;;;4.97;2.20;;;;;;;18.70;54.11;101596.22;5049769;28;20080;-62
2021/05/28 04:16:11;;;;;;;6.38;2.20;;;;;;;18.70;54.14;101592.69;5048093;28;20056;-62
2021/05/28 04:18:38;;;;;;;2.45;1.90;;;;;;;18.68;54.18;101591.97;5049154;28;20045;-62
2021/05/28 04:21:05;;;;;;;4.10;1.80;;;;;;;18.66;54.30;101594.75;5049435;28;20175;-63
2021/05/28 04:23:32;;;;;;;4.47;2.22;;;;;;;18.65;54.70;101587.75;5049199;28;20067;-62
2021/05/28 04:26:00;;;;;;;4.57;2.10;;;;;;;18.63;54.74;101586.16;5049712;28;20059;-62
2021/05/28 04:28:28;;;;;;;3.80;2.00;;;;;;;18.61;54.54;101591.59;5049085;28;20067;-76
2021/05/28 04:30:56;;;;;;;4.72;2.92;;;;;;;18.62;54.43;101592.47;5048599;28;20068;-63
2021/05/28 04:33:23;;;;;;;2.00;1.80;;;;;;;18.62;54.87;101593.28;5047977;28;20049;-62
2021/05/28 04:35:50;;;;;;;2.28;2.08;;;;;;;18.63;54.84;101591.47;5048673;28;20132;-68
2021/05/28 04:38:17;;;;;;;5.93;2.38;;;;;;;18.66;54.73;101599.22;5048937;28;20080;-68
2021/05/28 04:40:44;;;;;;;7.20;2.47;;;;;;;18.69;54.99;101591.00;5032670;28;20106;-69
2021/05/28 04:43:11;;;;;;;4.20;2.38;;;;;;;18.69;54.84;101593.66;5052502;28;20126;-62
2021/05/28 04:45:37;;;;;;;8.40;2.30;;;;;;;18.71;54.84;101594.38;5052470;28;20053;-62
2021/05/28 04:48:04;;;;;;;4.10;2.50;;;;;;;18.72;55.17;101588.94;5052214;28;20045;-73
2021/05/28 04:50:31;;;;;;;5.07;2.80;;;;;;;18.76;55.23;101600.19;5042089;28;20045;-62
2021/05/28 04:53:03;;;;;;;3.83;2.60;;;;;;;18.77;55.15;101599.25;5052290;28;20467;-63
2021/05/28 04:55:30;;;;;;;3.42;2.95;;;;;;;18.78;55.36;101598.28;5052420;28;20041;-77
2021/05/28 04:57:58;;;;;;;4.85;2.75;;;;;;;18.80;55.34;101600.81;5051670;28;20415;-62
2021/05/28 05:00:25;;;;;;;4.68;2.30;;;;;;;18.79;55.79;101596.44;5049231;28;20491;-63
2021/05/28 05:02:52;;;;;;;3.40;2.25;;;;;;;18.80;55.79;101593.66;5050870;28;20780;-65
2021/05/28 05:05:20;;;;;;;5.30;2.45;;;;;;;18.81;55.92;101595.38;5051268;28;20049;-63
2021/05/28 05:07:47;;;;;;;4.30;2.30;;;;;;;18.83;55.46;101603.22;5050345;28;20059;-69
2021/05/28 05:10:14;;;;;;;3.05;2.17;;;;;;;18.84;55.51;101602.25;5051314;28;20110;-63
2021/05/28 05:12:41;;;;;;;3.30;1.98;;;;;;;18.84;55.29;101600.47;5051159;28;20049;-63
2021/05/28 05:15:10;;;;;;;2.83;2.10;;;;;;;18.87;55.41;101599.38;5051246;28;20080;-63
2021/05/28 05:17:37;;;;;;;2.80;2.15;;;;;;;18.88;55.13;101601.91;5051482;28;20052;-64
2021/05/28 05:20:06;;;;;;;3.25;1.73;;;;;;;18.91;55.07;101606.16;5051107;28;20509;-63
2021/05/28 05:22:33;;;;;;;5.32;2.45;;;;;;;18.94;54.39;101603.25;5051255;28;20077;-63
2021/05/28 05:25:00;;;;;;;6.68;2.00;;;;;;;19.00;54.22;101609.91;5036235;28;20054;-62
2021/05/28 05:27:27;;;;;;;3.65;1.50;;;;;;;19.05;54.16;101608.56;5035368;28;20040;-69
2021/05/28 05:29:54;;;;;;;3.35;1.67;;;;;;;19.11;53.89;101614.38;5050762;28;20049;-63
2021/05/28 05:32:21;;;;;;;4.78;1.60;;;;;;;19.15;53.55;101614.03;5051102;28;20415;-62
2021/05/28 05:34:47;;;;;;;2.38;1.55;;;;;;;19.21;53.32;101618.00;5050637;28;20041;-63
2021/05/28 05:37:14;;;;;;;1.83;1.42;;;;;;;19.25;53.08;101603.50;5050978;28;20052;-62
2021/05/28 05:39:41;;;;;;;6.72;1.40;;;;;;;19.29;53.26;101609.41;5050467;28;20060;-63
2021/05/28 05:42:08;;;;;;;3.22;1.40;;;;;;;19.33;52.81;101609.03;5032566;28;20049;-63
2021/05/28 05:44:34;;;;;;;5.43;2.25;;;;;;;19.37;52.87;101607.81;5030718;28;20041;-72
2021/05/28 05:47:02;;;;;;;2.85;1.83;;;;;;;19.44;52.94;101616.19;5030781;28;20045;-62
2021/05/28 05:49:28;;;;;;;3.25;1.60;;;;;;;19.47;52.33;101612.44;5030804;28;20054;-63
2021/05/28 05:51:55;;;;;;;8.15;1.40;;;;;;;19.49;52.38;101607.81;5030256;28;20091;-71
2021/05/28 05:54:21;;;;;;;5.60;1.13;;;;;;;19.49;52.36;101611.31;5040111;28;20049;-62
2021/05/28 05:56:49;;;;;;;3.97;1.10;;;;;;;19.46;51.90;101613.38;5048313;28;20064;-63
2021/05/28 05:59:16;;;;;;;2.47;1.20;;;;;;;19.49;51.87;101615.78;5050254;28;20049;-64
2021/05/28 06:01:42;;;;;;;3.45;2.05;;;;;;;19.53;51.64;101619.91;5050324;28;20047;-62
2021/05/28 06:04:09;;;;;;;4.25;2.40;;;;;;;19.56;51.35;101623.16;5050010;28;20041;-65
2021/05/28 06:06:36;;;;;;;4.85;2.15;;;;;;;19.61;50.45;101620.13;5049564;28;20048;-63
2021/05/28 06:09:03;;;;;;;4.97;1.17;;;;;;;19.67;50.42;101618.78;5049625;28;20045;-62
2021/05/28 06:11:30;;;;;;;2.75;1.30;;;;;;;19.71;50.51;101626.38;5049907;28;20045;-62
2021/05/28 06:13:56;;;;;;;3.78;1.30;;;;;;;19.75;50.07;101635.81;5038250;28;20091;-62
2021/05/28 06:16:23;;;;;;;1.45;0.65;;;;;;;19.83;49.45;101637.03;5035696;28;20525;-61
2021/05/28 06:18:50;;;;;;;1.30;0.68;;;;;;;19.86;49.04;101639.47;5049429;28;20098;-61
2021/05/28 06:21:17;;;;;;;1.15;0.43;;;;;;;19.90;48.46;101631.09;5040298;28;20045;-61
2021/05/28 06:23:47;;;;;;;0.63;0.45;;;;;;;19.96;47.88;101634.22;5044290;28;20042;-61
2021/05/28 06:26:13;;;;;;;1.15;0.50;;;;;;;20.01;47.79;101632.88;5042533;28;20127;-61
2021/05/28 06:28:40;;;;;;;1.20;0.57;;;;;;;20.05;47.15;101634.31;5049159;28;20053;-61
2021/05/28 06:31:07;;;;;;;1.63;0.60;;;;;;;20.12;47.71;101631.97;5049463;28;20045;-61
2021/05/28 06:33:33;;;;;;;0.60;0.50;;;;;;;20.17;47.48;101636.94;5049182;28;20162;-61
2021/05/28 06:36:00;;;;;;;4.75;1.25;;;;;;;20.22;47.11;101638.22;5049214;28;20080;-61
2021/05/28 06:38:27;;;;;;;0.93;0.50;;;;;;;20.28;46.65;101647.53;5049204;28;20056;-61
2021/05/28 06:40:53;;;;;;;2.17;0.40;;;;;;;20.33;46.63;101642.66;5048359;28;20114;-61
2021/05/28 06:43:20;;;;;;;1.48;0.52;;;;;;;20.38;46.70;101634.28;5037479;28;20506;-62
2021/05/28 06:45:47;;;;;;;1.13;0.38;;;;;;;20.44;46.24;101654.25;5048796;28;20041;-62
2021/05/28 06:48:13;;;;;;;1.58;0.57;;;;;;;20.45;46.37;101642.59;5048893;28;20057;-62
2021/05/28 06:50:41;;;;;;;1.05;0.50;;;;;;;20.48;46.28;101650.34;5049188;28;20057;-62
2021/05/28 06:53:09;;;;;;;0.50;0.40;;;;;;;20.53;45.78;101658.78;5048409;28;20049;-63
2021/05/28 06:55:36;;;;;;;0.60;0.35;;;;;;;20.59;46.21;101657.44;5048554;28;20045;-62
2021/05/28 06:58:03;;;;;;;1.63;0.52;;;;;;;20.60;45.66;101659.13;5048163;28;20762;-62
2021/05/28 07:00:30;;;;;;;1.05;0.40;;;;;;;20.63;45.82;101665.06;5048473;28;20052;-66
2021/05/28 07:02:57;;;;;;;1.48;0.52;;;;;;;20.65;45.61;101670.25;5047708;28;20052;-63
2021/05/28 07:05:24;;;;;;;0.95;0.40;;;;;;;20.67;45.62;101666.47;5048577;28;20052;-62
2021/05/28 07:07:51;;;;;;;3.22;0.50;;;;;;;20.74;45.81;101668.66;5048651;28;20446;-63
2021/05/28 07:10:18;;;;;;;1.23;0.43;;;;;;;20.75;45.87;101660.53;5049112;28;20056;-63
2021/05/28 07:12:45;;;;;;;2.15;0.60;;;;;;;20.77;45.61;101666.56;5048662;28;20049;-65
2021/05/28 07:15:13;;;;;;;1.00;0.43;;;;;;;20.79;45.87;101659.28;5048768;28;20071;-62
2021/05/28 07:17:40;;;;;;;1.60;0.55;;;;;;;20.79;45.92;101661.94;5047971;28;20044;-63
2021/05/28 07:20:07;;;;;;;1.55;0.40;;;;;;;20.82;45.67;101668.84;5048580;28;20049;-63
2021/05/28 07:22:34;;;;;;;1.02;0.50;;;;;;;20.88;46.07;101665.66;5048319;28;20041;-69
2021/05/28 07:25:03;;;;;;;1.42;0.50;;;;;;;20.96;46.13;101665.84;5045276;28;20053;-62
2021/05/28 07:27:30;;;;;;;1.00;0.45;;;;;;;21.05;46.35;101666.84;5037710;28;20435;-64
2021/05/28 07:29:57;;;;;;;0.63;0.40;;;;;;;21.09;45.53;101660.28;5028583;28;20049;-63
2021/05/28 07:32:24;;;;;;;1.40;0.60;;;;;;;21.14;45.98;101660.72;5039373;28;20144;-63
2021/05/28 07:34:51;;;;;;;2.00;0.70;;;;;;;21.24;45.87;101660.75;5045465;28;20048;-64
2021/05/28 07:37:17;;;;;;;2.10;0.57;;;;;;;21.34;46.19;101664.31;5047362;28;20060;-65
2021/05/28 07:39:44;;;;;;;1.98;0.57;;;;;;;21.43;45.85;101667.16;5046966;28;20045;-63
2021/05/28 07:42:15;;;;;;;2.65;1.00;;;;;;;21.53;45.51;101662.69;5048151;28;20047;-63
2021/05/28 07:44:43;;;;;;;2.00;0.60;;;;;;;21.64;46.15;101664.44;5047866;28;20501;-63
2021/05/28 07:47:12;;;;;;;2.05;0.93;;;;;;;21.73;45.78;101666.28;5048227;28;20454;-63
2021/05/28 07:49:39;;;;;;;2.22;0.70;;;;;;;21.76;45.18;101654.47;5047877;28;20484;-63
2021/05/28 07:52:07;;;;;;;1.08;0.50;;;;;;;21.80;44.64;101659.41;5048368;28;20053;-64
2021/05/28 07:54:34;;;;;;;1.10;0.60;;;;;;;21.83;44.87;101659.13;5048523;28;20049;-63
2021/05/28 07:57:04;;;;;;;1.98;0.60;;;;;;;21.88;45.00;101658.72;5048244;28;20045;-64
2021/05/28 07:59:31;;;;;;;1.80;0.70;;;;;;;21.91;44.90;101658.41;5048247;28;20076;-63
2021/05/28 08:01:57;;;;;;;0.75;0.60;;;;;;;22.03;44.73;101656.47;5048188;28;20453;-63
2021/05/28 08:04:24;;;;;;;0.98;0.88;;;;;;;22.14;44.68;101655.47;5048231;28;20045;-65
2021/05/28 08:06:51;;;;;;;1.20;0.70;;;;;;;22.14;44.95;101656.34;5047992;28;20041;-64
2021/05/28 08:09:18;;;;;;;2.42;1.10;;;;;;;21.99;44.30;101655.03;5044421;28;20406;-64
2021/05/28 08:11:44;;;;;;;2.08;1.10;;;;;;;21.83;44.52;101652.94;5028147;28;20049;-64
2021/05/28 08:14:11;;;;;;;2.38;0.95;;;;;;;21.78;44.84;101649.84;5029733;28;20057;-65
2021/05/28 08:16:38;;;;;;;1.60;0.88;;;;;;;21.92;44.77;101653.94;5032066;28;20400;-63
2021/05/28 08:19:05;;;;;;;1.48;0.95;;;;;;;22.09;45.26;101663.91;5031890;28;20049;-64
2021/05/28 08:21:31;;;;;;;2.22;0.90;;;;;;;22.24;45.48;101656.31;5032006;28;20046;-64
2021/05/28 08:23:58;;;;;;;4.13;0.90;;;;;;;22.41;45.52;101651.28;5031850;28;20050;-64
2021/05/28 08:26:24;;;;;;;1.50;1.05;;;;;;;22.54;44.69;101643.81;5031724;28;20045;-66
2021/05/28 08:28:51;;;;;;;2.00;1.30;;;;;;;22.68;44.79;101642.50;5031939;28;20046;-64
2021/05/28 08:31:19;;;;;;;3.50;1.00;;;;;;;22.80;44.49;101643.16;5031535;28;20450;-64
2021/05/28 08:33:46;;;;;;;1.95;0.95;;;;;;;22.91;43.91;101626.94;5031580;28;20500;-64
2021/05/28 08:36:13;;;;;;;1.55;1.00;;;;;;;23.01;43.61;101626.91;5031664;28;20458;-63
2021/05/28 08:38:39;;;;;;;2.67;1.00;;;;;;;23.11;43.36;101626.88;5031704;28;20053;-64
2021/05/28 08:41:09;;;;;;;1.50;0.73;;;;;;;23.20;42.90;101626.00;5031623;28;20053;-64
2021/05/28 08:43:40;;;;;;;3.63;0.70;;;;;;;23.28;42.17;101622.59;5031394;28;20053;-64
2021/05/28 08:46:08;;;;;;;2.55;0.90;;;;;;;23.40;41.59;101625.91;5031308;28;20081;-65
2021/05/28 08:48:35;;;;;;;1.60;0.88;;;;;;;23.42;41.31;101615.88;5031368;28;20054;-65
2021/05/28 08:51:02;;;;;;;4.13;1.02;;;;;;;23.43;40.75;101617.56;5031379;28;20050;-64
2021/05/28 08:53:29;;;;;;;1.95;1.00;;;;;;;23.46;41.19;101614.59;5031567;28;20053;-63
2021/05/28 08:55:55;;;;;;;2.22;0.82;;;;;;;23.54;41.36;101614.69;5041173;28;20063;-63
2021/05/28 08:58:22;;;;;;;1.88;0.70;;;;;;;23.65;41.71;101610.94;5034629;28;20045;-64
2021/05/28 09:00:50;;;;;;;2.53;0.40;;;;;;;23.77;41.42;101606.22;5034571;28;20080;-67
2021/05/28 09:03:28;;;;;;;1.02;0.40;;;;;;;23.86;40.68;101605.28;5050861;28;20047;-67
2021/05/28 09:05:56;;;;;;;2.03;1.20;;;;;;;23.97;40.40;101593.50;5051068;28;20143;-63
2021/05/28 09:08:25;;;;;;;0.85;0.52;;;;;;;24.10;40.55;101596.63;5050252;28;20068;-63
2021/05/28 09:10:53;;;;;;;0.75;0.60;;;;;;;24.20;40.58;101599.22;5050787;28;20406;-63
2021/05/28 09:13:25;;;;;;;1.55;0.80;;;;;;;24.32;40.23;101589.09;5043829;28;20042;-63
2021/05/28 09:16:04;;;;;;;3.20;0.90;;;;;;;24.42;39.75;101594.34;5033528;28;20124;-63
2021/05/28 09:18:43;;;;;;;1.98;0.70;;;;;;;24.48;39.40;101592.88;5030707;28;20454;-62
2021/05/28 09:21:10;;;;;;;1.17;0.65;;;;;;;24.56;39.42;101588.41;5030630;28;20073;-62
2021/05/28 09:23:37;;;;;;;2.05;0.80;;;;;;;24.64;39.21;101582.25;5044116;28;20045;-62
2021/05/28 09:26:07;;;;;;;1.67;0.73;;;;;;;24.74;39.56;101587.53;5043841;28;20053;-62
2021/05/28 09:28:38;;;;;;;1.17;0.55;;;;;;;24.82;39.27;101578.66;5050293;28;20483;-63
2021/05/28 09:31:08;;;;;;;1.77;0.65;;;;;;;24.91;39.24;101572.31;5031292;28;20045;-62
2021/05/28 09:33:42;;;;;;;1.08;0.52;;;;;;;25.00;38.67;101573.19;5030498;28;20042;-62
2021/05/28 09:36:13;;;;;;;1.92;0.88;;;;;;;25.07;38.50;101574.25;5030753;28;20466;-63
2021/05/28 09:38:40;;;;;;;0.73;0.50;;;;;;;25.14;38.10;101569.91;5030517;28;20045;-62
2021/05/28 09:41:07;;;;;;;4.68;1.20;;;;;;;25.20;37.49;101566.53;5030374;28;20050;-63
2021/05/28 09:43:34;;;;;;;2.38;0.80;;;;;;;25.29;37.62;101570.09;5030229;28;20053;-64
2021/05/28 09:46:11;;;;;;;1.98;0.70;;;;;;;25.34;37.14;101564.25;5030569;28;20083;-62
2021/05/28 09:48:38;;;;;;;3.97;1.15;;;;;;;25.34;36.89;101551.63;5030455;28;20050;-63
2021/05/28 09:51:06;;;;;;;3.92;1.10;;;;;;;25.45;36.93;101553.22;5030167;28;20111;-63
2021/05/28 09:53:42;;;;;;;11.60;3.50;;;;;;;25.59;36.97;101554.41;5030212;28;20111;-63
2021/05/28 09:56:21;;;;;;;6.32;1.52;;;;;;;25.73;36.32;101558.28;5029937;28;20048;-67
2021/05/28 09:59:06;;;;;;;16.17;4.32;;;;;;;25.85;35.94;101556.97;5032950;28;20076;-65
2021/05/28 10:01:52;;;;;;;8.32;1.60;;;;;;;25.99;36.11;101555.44;5037654;28;20425;-63
2021/05/28 10:04:19;;;;;;;2.60;0.88;;;;;;;26.09;36.02;101549.88;5040948;28;20049;-63
2021/05/28 10:06:48;;;;;;;4.45;0.80;;;;;;;26.16;35.89;101548.22;5049942;28;20041;-63
2021/05/28 10:09:16;;;;;;;1.10;0.70;;;;;;;26.18;35.07;101556.09;5039785;28;20045;-61
2021/05/28 10:11:44;;;;;;;2.03;0.40;;;;;;;26.15;33.67;101553.78;5036961;28;20057;-61
2021/05/28 10:14:11;;;;;;;3.90;0.90;;;;;;;26.19;33.18;101550.53;5029883;28;20042;-62
2021/05/28 10:16:38;;;;;;;4.40;0.85;;;;;;;26.23;33.25;101554.59;5028440;28;20056;-61
2021/05/28 10:19:06;;;;;;;1.80;0.80;;;;;;;26.30;33.72;101546.69;5029562;28;20483;-61
2021/05/28 10:21:33;;;;;;;2.33;1.10;;;;;;;26.38;34.53;101549.34;5029691;28;20045;-64
2021/05/28 10:24:00;;;;;;;4.03;0.90;;;;;;;26.48;35.05;101554.53;5029624;28;20407;-67
2021/05/28 10:26:34;;;;;;;2.15;0.77;;;;;;;26.49;35.08;101545.44;5029601;28;20091;-61
2021/05/28 10:29:03;;;;;;;1.20;0.90;;;;;;;26.19;35.98;101544.34;5029380;28;20049;-62
2021/05/28 10:31:54;;;;;;;2.95;0.90;;;;;;;26.28;35.71;101537.91;5029384;28;20048;-61
2021/05/28 10:34:22;;;;;;;1.92;0.80;;;;;;;26.43;35.68;101534.53;5029401;28;20053;-67
2021/05/28 10:36:50;;;;;;;2.80;0.88;;;;;;;26.50;35.73;101527.44;5029222;28;20124;-63
2021/05/28 10:39:18;;;;;;;1.15;0.90;;;;;;;26.56;35.85;101542.91;5029416;28;20049;-67
2021/05/28 10:42:07;;;;;;;1.42;0.80;;;;;;;26.62;36.01;101544.06;5029196;28;20060;-67
2021/05/28 10:44:44;;;;;;;1.63;0.90;;;;;;;26.68;35.51;101530.75;5047629;28;20060;-65
2021/05/28 10:47:13;;;;;;;2.83;0.40;;;;;;;26.69;34.91;101528.88;5046414;28;20076;-64
2021/05/28 10:49:47;;;;;;;2.85;0.63;;;;;;;26.75;33.79;101533.59;5046780;28;20056;-70
2021/05/28 10:52:34;;;;;;;1.27;0.73;;;;;;;26.85;33.19;101538.78;5048989;28;20061;-65
2021/05/28 10:55:12;;;;;;;2.63;0.70;;;;;;;27.02;33.61;101539.53;5048899;28;20120;-69
2021/05/28 10:57:49;;;;;;;3.33;0.70;;;;;;;27.19;33.97;101538.44;5048647;28;20473;-65
2021/05/28 11:00:23;;;;;;;1.55;0.50;;;;;;;27.34;33.84;101533.13;5045310;28;20478;-66
2021/05/28 11:02:54;;;;;;;1.75;0.80;;;;;;;27.40;33.45;101536.16;5029119;28;20045;-76
2021/05/28 11:06:02;;;;;;;0.90;0.50;;;;;;;27.50;33.47;101520.56;5029127;28;20523;-65
2021/05/28 11:08:43;;;;;;;2.03;0.82;;;;;;;27.57;33.29;101518.84;5006835;28;20112;-64
2021/05/28 11:11:41;;;;;;;2.85;0.68;;;;;;;27.56;33.12;101516.31;5006127;28;20054;-63
2021/05/28 11:14:14;;;;;;;5.43;0.70;;;;;;;27.50;32.96;101513.34;5025258;28;20077;-64
2021/05/28 11:16:52;;;;;;;2.60;0.73;;;;;;;27.52;32.94;101507.75;5041392;28;20068;-62
2021/05/28 11:19:40;;;;;;;1.05;0.60;;;;;;;27.24;33.51;101510.97;5045568;28;20041;-65
2021/05/28 11:22:12;;;;;;;5.60;1.00;;;;;;;26.68;34.21;101493.06;5046970;28;20044;-66
2021/05/28 11:24:52;;;;;;;2.58;0.80;;;;;;;26.28;35.02;101491.34;5045664;28;20095;-69
2021/05/28 11:27:22;;;;;;;2.90;0.80;;;;;;;26.37;35.08;101499.25;5046820;28;20095;-67
2021/05/28 11:30:03;;;;;;;1.48;0.80;;;;;;;26.61;34.83;101497.44;5044269;28;20046;-72
2021/05/28 11:32:33;;;;;;;2.22;1.00;;;;;;;26.83;34.89;101500.41;5047343;28;20059;-61